Time;durP1;ratioP1;P1;durP2;ratioP2;P2;SDS_P1;SDS_P2;PMS_P1;PMS_P2;Temp;Humidity;BMP_temperature;BMP_pressure;BME280_temperature;BME280_humidity;BME280_pressure;Samples;Min_cycle;Max_cycle;Signal;HPM_P1;HPM_P2
2022/12/15 00:40:42;;;;;;;;;;;-5.80;99.90;;;;;;5087639;28;20047;-67
2022/12/15 00:43:10;;;;;;;;;;;-5.80;99.90;;;;;;5087664;27;20401;-68
2022/12/15 00:48:23;;;;;;;;;;;-5.90;99.90;;;;;;5085521;28;19980;-68
2022/12/15 00:50:51;;;;;;;;;;;-5.80;99.90;;;;;;5086696;27;19928;-68
2022/12/15 01:20:54;;;;;;;;;;;-5.70;99.90;;;;;;5081703;28;19934;-67
2022/12/15 01:23:21;;;;;;;;;;;-5.80;99.90;;;;;;5082508;28;20359;-67
2022/12/15 01:25:49;;;;;;;;;;;-5.70;99.90;;;;;;5081776;28;19938;-67
2022/12/15 01:28:16;;;;;;;;;;;-5.70;99.90;;;;;;5084070;28;19931;-67
2022/12/15 01:30:43;;;;;;;;;;;-5.70;99.90;;;;;;5085113;28;20031;-68
2022/12/15 01:33:11;;;;;;;;;;;-5.70;99.90;;;;;;5083811;27;19932;-67
2022/12/15 01:35:37;;;;;;;;;;;-5.70;99.90;;;;;;5083109;28;19939;-68
2022/12/15 01:38:05;;;;;;;;;;;-5.70;99.90;;;;;;5084279;28;21034;-68
2022/12/15 01:40:49;;;;;;;;;;;-5.70;99.90;;;;;;5083379;28;19932;-67
2022/12/15 01:43:16;;;;;;;;;;;-5.70;99.90;;;;;;5081834;28;20012;-67
2022/12/15 01:46:01;;;;;;;;;;;-5.70;99.90;;;;;;5083141;27;19938;-69
2022/12/15 01:48:34;;;;;;;;;;;-5.70;99.90;;;;;;5083100;27;20034;-69
2022/12/15 01:51:04;;;;;;;;;;;-5.80;99.90;;;;;;5084401;28;19932;-68
2022/12/15 01:53:37;;;;;;;;;;;-5.80;99.90;;;;;;5083436;27;19938;-68
2022/12/15 01:56:05;;;;;;;;;;;-5.80;99.90;;;;;;5087891;28;19932;-68
2022/12/15 01:58:32;;;;;;;;;;;-5.80;99.90;;;;;;5084651;27;20007;-68
2022/12/15 02:01:00;;;;;;;;;;;-5.80;99.90;;;;;;5082705;28;19944;-67
2022/12/15 02:03:27;;;;;;;;;;;-5.80;99.90;;;;;;5082973;28;19942;-68
2022/12/15 02:05:55;;;;;;;;;;;-5.80;99.90;;;;;;5082822;28;19938;-67
2022/12/15 02:08:22;;;;;;;;;;;-5.80;99.90;;;;;;5083675;28;20394;-67
2022/12/15 02:10:56;;;;;;;;;;;-5.80;99.90;;;;;;5083777;28;19928;-69
2022/12/15 02:13:28;;;;;;;;;;;-5.80;99.90;;;;;;5086877;28;19931;-68
2022/12/15 02:15:59;;;;;;;;;;;-5.80;99.90;;;;;;5082475;28;20655;-68
2022/12/15 02:18:28;;;;;;;;;;;-5.80;99.90;;;;;;5081452;28;20402;-68
2022/12/15 02:20:57;;;;;;;;;;;-5.80;99.90;;;;;;5079867;28;19931;-68
2022/12/15 02:23:34;;;;;;;;;;;-5.80;99.90;;;;;;5085626;28;20138;-68
2022/12/15 02:26:13;;;;;;;;;;;-5.80;99.90;;;;;;5082013;28;19932;-68
2022/12/15 02:28:45;;;;;;;;;;;-5.80;99.90;;;;;;5082137;28;20058;-69
2022/12/15 02:34:02;;;;;;;;;;;-5.80;99.90;;;;;;5083435;28;20417;-68
2022/12/15 02:36:30;;;;;;;;;;;-5.90;99.90;;;;;;5082441;28;19932;-68
2022/12/15 02:38:56;;;;;;;;;;;-5.90;99.90;;;;;;5084085;28;20279;-67
2022/12/15 02:41:35;;;;;;;;;;;-5.90;99.90;;;;;;5081196;28;19977;-68
2022/12/15 02:44:03;;;;;;;;;;;-6.00;99.90;;;;;;5084738;28;19932;-68
2022/12/15 02:46:35;;;;;;;;;;;-6.00;99.90;;;;;;5083278;28;19932;-69
2022/12/15 02:49:06;;;;;;;;;;;-6.00;99.90;;;;;;5080585;28;19958;-68
2022/12/15 02:51:40;;;;;;;;;;;-6.00;99.90;;;;;;5082784;28;20424;-68
2022/12/15 02:54:14;;;;;;;;;;;-6.10;99.90;;;;;;5085811;28;19932;-68
2022/12/15 02:56:44;;;;;;;;;;;-6.20;99.90;;;;;;5081982;28;19939;-68
2022/12/15 02:59:14;;;;;;;;;;;-6.20;99.90;;;;;;5082860;28;20010;-68
2022/12/15 03:01:44;;;;;;;;;;;-6.20;99.90;;;;;;5084954;28;20022;-68
2022/12/15 03:04:11;;;;;;;;;;;-6.20;99.90;;;;;;5082549;28;19932;-68
2022/12/15 03:06:38;;;;;;;;;;;-6.20;99.90;;;;;;5082207;28;19932;-68
2022/12/15 03:09:05;;;;;;;;;;;-6.20;99.90;;;;;;5082670;28;19935;-66
2022/12/15 03:11:32;;;;;;;;;;;-6.10;99.90;;;;;;5083653;28;19939;-69
2022/12/15 03:13:58;;;;;;;;;;;-6.20;99.90;;;;;;5085057;28;19932;-70
2022/12/15 03:16:25;;;;;;;;;;;-6.30;99.90;;;;;;5082512;28;19932;-69
2022/12/15 03:18:53;;;;;;;;;;;-6.30;99.90;;;;;;5084349;28;19932;-69
2022/12/15 03:21:20;;;;;;;;;;;-6.40;99.90;;;;;;5086127;28;19974;-68
2022/12/15 03:23:46;;;;;;;;;;;-6.40;99.90;;;;;;5090245;28;20007;-69
2022/12/15 03:26:13;;;;;;;;;;;-6.30;99.90;;;;;;5087741;27;19939;-69
2022/12/15 03:28:40;;;;;;;;;;;-6.20;99.90;;;;;;5085340;27;19928;-68
2022/12/15 03:31:06;;;;;;;;;;;-6.20;99.90;;;;;;5088216;28;19934;-69
2022/12/15 03:33:33;;;;;;;;;;;-6.10;99.90;;;;;;5084492;28;19928;-69
2022/12/15 03:36:01;;;;;;;;;;;-6.10;99.90;;;;;;5086326;27;20064;-68
2022/12/15 03:38:28;;;;;;;;;;;-6.00;99.90;;;;;;5088050;28;19924;-68
2022/12/15 03:40:55;;;;;;;;;;;-6.00;99.90;;;;;;5083516;28;19955;-69
2022/12/15 03:43:22;;;;;;;;;;;-6.00;99.90;;;;;;5086494;27;19927;-69
2022/12/15 03:45:48;;;;;;;;;;;-6.10;99.90;;;;;;5086090;27;19932;-69
2022/12/15 03:48:15;;;;;;;;;;;-6.30;99.90;;;;;;5087386;28;19932;-68
2022/12/15 03:50:43;;;;;;;;;;;-6.30;99.90;;;;;;5084087;27;20019;-69
2022/12/15 03:53:11;;;;;;;;;;;-6.40;99.90;;;;;;5086487;28;19932;-69
2022/12/15 03:55:38;;;;;;;;;;;-6.40;99.90;;;;;;5087970;28;20018;-69
2022/12/15 03:58:04;;;;;;;;;;;-6.20;99.90;;;;;;5085941;28;19932;-68
2022/12/15 04:00:31;;;;;;;;;;;-6.10;99.90;;;;;;5086492;27;20022;-69
2022/12/15 04:02:58;;;;;;;;;;;-6.10;99.90;;;;;;5086680;27;20011;-69
2022/12/15 04:05:26;;;;;;;;;;;-6.00;99.90;;;;;;5083670;28;20016;-69
2022/12/15 04:07:53;;;;;;;;;;;-6.00;99.90;;;;;;5081179;27;19928;-69
2022/12/15 04:10:21;;;;;;;;;;;-6.00;99.90;;;;;;5086795;27;19932;-68
2022/12/15 04:12:48;;;;;;;;;;;-6.10;99.90;;;;;;5087523;28;20018;-67
2022/12/15 04:15:15;;;;;;;;;;;-6.20;99.90;;;;;;5087881;28;19963;-67
2022/12/15 04:17:41;;;;;;;;;;;-6.30;99.90;;;;;;5083541;28;19935;-67
2022/12/15 04:20:09;;;;;;;;;;;-6.20;99.90;;;;;;5088503;28;20016;-67
2022/12/15 04:22:35;;;;;;;;;;;-6.10;99.90;;;;;;5090443;27;20011;-66
2022/12/15 05:33:38;;;;;;;;;;;-6.60;99.90;;;;;;5086995;28;19984;-68
2022/12/15 05:36:05;;;;;;;;;;;-6.50;99.90;;;;;;5087136;27;20018;-67
2022/12/15 05:38:31;;;;;;;;;;;-6.40;99.90;;;;;;5090002;28;19932;-67
2022/12/15 05:40:58;;;;;;;;;;;-6.50;99.90;;;;;;5087026;28;20836;-67
2022/12/15 05:43:25;;;;;;;;;;;-6.70;99.90;;;;;;5089443;28;20053;-67
2022/12/15 05:45:52;;;;;;;;;;;-6.80;99.90;;;;;;5089181;27;19931;-66
2022/12/15 05:48:18;;;;;;;;;;;-6.80;99.90;;;;;;5087195;28;19952;-66
2022/12/15 05:50:46;;;;;;;;;;;-6.80;99.90;;;;;;5084829;28;20119;-67
2022/12/15 05:53:13;;;;;;;;;;;-6.70;99.90;;;;;;5084202;28;19954;-67
2022/12/15 05:55:40;;;;;;;;;;;-6.60;99.90;;;;;;5086221;28;19932;-67
2022/12/15 05:58:07;;;;;;;;;;;-6.70;99.90;;;;;;5090997;28;20004;-69
2022/12/15 06:00:34;;;;;;;;;;;-6.70;99.90;;;;;;5082484;28;19934;-69
2022/12/15 06:03:01;;;;;;;;;;;-6.60;99.90;;;;;;5085693;28;19932;-69
2022/12/15 06:05:28;;;;;;;;;;;-6.60;99.90;;;;;;5082316;28;20565;-69
2022/12/15 06:07:56;;;;;;;;;;;-6.70;99.90;;;;;;5084908;28;19932;-69
2022/12/15 06:10:22;;;;;;;;;;;-6.70;99.90;;;;;;5086893;28;19924;-68
2022/12/15 06:12:49;;;;;;;;;;;-6.60;99.90;;;;;;5084325;28;20004;-68
2022/12/15 06:15:16;;;;;;;;;;;-6.50;99.90;;;;;;5086772;28;19938;-68
2022/12/15 06:17:43;;;;;;;;;;;-6.50;99.90;;;;;;5085654;28;20463;-68
2022/12/15 06:20:10;;;;;;;;;;;-6.60;99.90;;;;;;5085995;28;19932;-68
2022/12/15 06:22:37;;;;;;;;;;;-6.60;99.90;;;;;;5100951;28;20122;-69
2022/12/15 06:25:06;;;;;;;;;;;-6.60;99.90;;;;;;5110998;28;20386;-69
2022/12/15 06:27:35;;;;;;;;;;;-6.50;99.90;;;;;;5107356;28;19982;-67
2022/12/15 06:30:01;;;;;;;;;;;-6.40;99.90;;;;;;5096615;28;19955;-69
2022/12/15 06:32:28;;;;;;;;;;;-6.40;99.90;;;;;;5108636;28;19924;-67
2022/12/15 06:34:55;;;;;;;;;;;-6.40;99.90;;;;;;5108562;28;20365;-68
2022/12/15 06:37:21;;;;;;;;;;;-6.30;99.90;;;;;;5096201;28;19971;-70
2022/12/15 06:39:48;;;;;;;;;;;-6.20;99.90;;;;;;5095998;28;19939;-68
2022/12/15 06:42:17;;;;;;;;;;;-6.20;99.90;;;;;;5097969;28;19967;-69
2022/12/15 06:44:43;;;;;;;;;;;-6.10;99.90;;;;;;5093599;28;19928;-67
2022/12/15 06:47:10;;;;;;;;;;;-6.10;99.90;;;;;;5107611;28;19974;-69
2022/12/15 06:49:37;;;;;;;;;;;-6.10;99.90;;;;;;5089744;28;19954;-71
2022/12/15 06:52:04;;;;;;;;;;;-6.10;99.90;;;;;;5090003;28;19939;-70
2022/12/15 06:54:30;;;;;;;;;;;-6.10;99.90;;;;;;5088469;28;19932;-69
2022/12/15 06:56:57;;;;;;;;;;;-6.20;99.90;;;;;;5091313;28;19963;-69
2022/12/15 06:59:25;;;;;;;;;;;-6.10;99.90;;;;;;5091767;28;19939;-68
2022/12/15 07:01:52;;;;;;;;;;;-6.20;99.90;;;;;;5089571;28;20688;-70
2022/12/15 07:04:19;;;;;;;;;;;-6.40;99.90;;;;;;5091217;28;20077;-70
2022/12/15 07:06:46;;;;;;;;;;;-6.30;99.90;;;;;;5090326;28;19932;-71
2022/12/15 07:09:16;;;;;;;;;;;-6.30;99.90;;;;;;5091953;27;20008;-70
2022/12/15 07:11:42;;;;;;;;;;;-6.20;99.90;;;;;;5088872;28;20387;-70
2022/12/15 07:14:10;;;;;;;;;;;-6.00;99.90;;;;;;5093331;27;20034;-71
2022/12/15 07:16:38;;;;;;;;;;;-6.00;99.90;;;;;;5092673;28;20022;-70
2022/12/15 07:19:04;;;;;;;;;;;-5.90;99.90;;;;;;5088845;27;20399;-68
2022/12/15 07:21:31;;;;;;;;;;;-5.80;99.90;;;;;;5092426;28;21558;-68
2022/12/15 07:23:58;;;;;;;;;;;-5.70;99.90;;;;;;5092680;27;22126;-69
2022/12/15 07:26:25;;;;;;;;;;;-5.60;99.90;;;;;;5084570;28;20378;-69
2022/12/15 07:28:53;;;;;;;;;;;-5.50;99.90;;;;;;5090580;28;20409;-69
2022/12/15 07:31:19;;;;;;;;;;;-5.50;99.90;;;;;;5087626;28;19928;-70
2022/12/15 07:33:48;;;;;;;;;;;-5.50;99.90;;;;;;5088877;28;19932;-71
2022/12/15 07:36:14;;;;;;;;;;;-5.40;99.90;;;;;;5087913;28;20275;-71
2022/12/15 07:38:45;;;;;;;;;;;-5.40;99.90;;;;;;5091249;28;19967;-70
2022/12/15 07:41:11;;;;;;;;;;;-5.40;99.90;;;;;;5088277;28;19928;-71
2022/12/15 07:43:38;;;;;;;;;;;-5.50;99.90;;;;;;5089997;28;19931;-71
2022/12/15 07:46:05;;;;;;;;;;;-5.80;99.90;;;;;;5084511;28;19931;-70
2022/12/15 07:48:32;;;;;;;;;;;-6.00;99.90;;;;;;5090599;28;19928;-71
2022/12/15 07:51:04;;;;;;;;;;;-6.20;99.90;;;;;;5087487;28;19928;-70
2022/12/15 07:53:31;;;;;;;;;;;-6.20;99.90;;;;;;5090250;28;19930;-70
2022/12/15 07:55:58;;;;;;;;;;;-6.20;99.90;;;;;;5089198;28;20023;-70
2022/12/15 07:58:26;;;;;;;;;;;-6.20;99.90;;;;;;5087981;28;19935;-72
2022/12/15 08:00:53;;;;;;;;;;;-6.20;99.90;;;;;;5089754;28;20598;-69
2022/12/15 08:03:19;;;;;;;;;;;-6.20;99.90;;;;;;5091303;28;20004;-71
2022/12/15 08:05:46;;;;;;;;;;;-6.20;99.90;;;;;;5090870;28;19931;-70
2022/12/15 08:08:14;;;;;;;;;;;-6.10;99.90;;;;;;5090149;28;19928;-71
2022/12/15 08:10:41;;;;;;;;;;;-6.10;99.90;;;;;;5091532;27;20180;-69
2022/12/15 08:13:08;;;;;;;;;;;-6.00;99.90;;;;;;5091723;28;19924;-70
2022/12/15 08:15:36;;;;;;;;;;;-6.00;99.90;;;;;;5093206;28;20418;-70
2022/12/15 08:18:03;;;;;;;;;;;-6.00;99.90;;;;;;5088590;28;20030;-69
2022/12/15 08:20:30;;;;;;;;;;;-5.90;99.90;;;;;;5089750;28;20026;-69
2022/12/15 08:22:57;;;;;;;;;;;-5.80;99.90;;;;;;5092271;28;19927;-70
2022/12/15 08:25:27;;;;;;;;;;;-5.60;99.90;;;;;;5087764;28;19928;-70
2022/12/15 08:27:54;;;;;;;;;;;-5.50;99.90;;;;;;5092250;28;20022;-70
2022/12/15 08:30:20;;;;;;;;;;;-5.30;99.90;;;;;;5089496;28;20396;-72
2022/12/15 08:32:47;;;;;;;;;;;-5.30;99.90;;;;;;5087502;28;20006;-70
2022/12/15 08:35:14;;;;;;;;;;;-5.20;99.90;;;;;;5089715;28;19928;-71
2022/12/15 08:37:41;;;;;;;;;;;-5.20;99.90;;;;;;5084152;28;19932;-70
2022/12/15 08:40:08;;;;;;;;;;;-5.30;99.90;;;;;;5087610;28;20026;-69
2022/12/15 08:42:37;;;;;;;;;;;-5.30;99.90;;;;;;5091894;28;19966;-69
2022/12/15 08:45:05;;;;;;;;;;;-5.30;99.90;;;;;;5090562;28;19934;-70
2022/12/15 08:47:34;;;;;;;;;;;-4.70;99.90;;;;;;5088676;28;19928;-69
2022/12/15 08:50:01;;;;;;;;;;;-3.30;99.90;;;;;;5089170;28;19955;-71
2022/12/15 08:52:28;;;;;;;;;;;-2.40;99.90;;;;;;5090614;28;20015;-72
2022/12/15 08:54:55;;;;;;;;;;;-1.70;99.90;;;;;;5091439;28;19927;-71
2022/12/15 08:57:22;;;;;;;;;;;-0.80;99.90;;;;;;5086612;28;20007;-71
2022/12/15 08:59:50;;;;;;;;;;;-0.10;99.90;;;;;;5087664;28;19935;-69
2022/12/15 09:02:16;;;;;;;;;;;0.30;99.90;;;;;;5089432;28;19928;-69
2022/12/15 09:04:44;;;;;;;;;;;0.70;99.90;;;;;;5088563;28;19927;-70
2022/12/15 09:07:10;;;;;;;;;;;1.00;99.90;;;;;;5090351;28;20169;-70
2022/12/15 09:09:38;;;;;;;;;;;1.30;99.90;;;;;;5089885;28;20067;-70
2022/12/15 09:12:05;;;;;;;;;;;1.30;99.90;;;;;;5089073;28;20670;-70
2022/12/15 09:14:33;;;;;;;;;;;1.70;99.90;;;;;;5089942;28;19924;-69
2022/12/15 09:17:01;;;;;;;;;;;1.90;98.60;;;;;;5088470;28;19985;-69
2022/12/15 09:19:28;;;;;;;;;;;2.40;97.70;;;;;;5089447;28;20371;-70
2022/12/15 09:21:54;;;;;;;;;;;2.80;96.30;;;;;;5088857;28;20027;-69
2022/12/15 09:24:23;;;;;;;;;;;2.50;94.00;;;;;;5090050;28;20001;-70
2022/12/15 09:26:50;;;;;;;;;;;1.30;94.00;;;;;;5090039;27;19927;-69
2022/12/15 09:29:17;;;;;;;;;;;0.00;97.90;;;;;;5088906;28;19943;-69
2022/12/15 09:31:45;;;;;;;;;;;-0.90;99.90;;;;;;5088863;28;19939;-70
2022/12/15 09:34:14;;;;;;;;;;;-1.60;99.90;;;;;;5088998;28;20012;-69
2022/12/15 09:36:41;;;;;;;;;;;-1.90;99.90;;;;;;5087811;28;19928;-69
2022/12/15 09:39:10;;;;;;;;;;;-2.10;99.90;;;;;;5089474;28;20061;-69
2022/12/15 09:41:38;;;;;;;;;;;-2.20;99.90;;;;;;5084297;28;19932;-69
2022/12/15 09:44:06;;;;;;;;;;;-2.30;99.90;;;;;;5087454;28;19939;-69
2022/12/15 09:46:39;;;;;;;;;;;-2.30;99.90;;;;;;5087047;28;20011;-69
2022/12/15 09:49:12;;;;;;;;;;;-2.30;99.90;;;;;;5087115;28;19932;-69
2022/12/15 09:51:43;;;;;;;;;;;-2.30;99.90;;;;;;5085671;28;19928;-69
2022/12/15 09:54:11;;;;;;;;;;;-2.30;99.90;;;;;;5085847;28;19967;-69
2022/12/15 09:56:40;;;;;;;;;;;-2.30;99.90;;;;;;5084611;28;20446;-69
2022/12/15 09:59:14;;;;;;;;;;;-2.20;99.90;;;;;;5085300;28;19939;-70
2022/12/15 10:01:45;;;;;;;;;;;-2.10;99.90;;;;;;5089960;28;19930;-69
2022/12/15 10:04:15;;;;;;;;;;;-2.10;99.90;;;;;;5085011;28;20027;-69
2022/12/15 10:06:48;;;;;;;;;;;-2.00;99.90;;;;;;5085931;28;22688;-69
2022/12/15 10:09:18;;;;;;;;;;;-1.90;99.90;;;;;;5087695;28;20018;-71
2022/12/15 10:11:50;;;;;;;;;;;-1.90;99.90;;;;;;5086878;28;20566;-69
2022/12/15 10:14:21;;;;;;;;;;;-1.90;99.90;;;;;;5088104;28;19930;-69
2022/12/15 10:16:53;;;;;;;;;;;-1.80;99.90;;;;;;5089719;28;19927;-67
2022/12/15 10:19:24;;;;;;;;;;;-1.70;99.90;;;;;;5086190;28;19967;-69
2022/12/15 10:21:52;;;;;;;;;;;-1.70;99.90;;;;;;5088646;28;19942;-69
2022/12/15 10:24:20;;;;;;;;;;;-1.50;99.90;;;;;;5087150;28;19983;-68
2022/12/15 10:26:49;;;;;;;;;;;-1.60;99.90;;;;;;5088787;28;20280;-69
2022/12/15 10:29:31;;;;;;;;;;;-1.50;99.90;;;;;;5088454;28;20389;-67
2022/12/15 10:32:00;;;;;;;;;;;-1.40;99.90;;;;;;5088283;28;19932;-69
2022/12/15 10:34:27;;;;;;;;;;;-1.20;99.90;;;;;;5086568;28;19931;-68
2022/12/15 10:36:57;;;;;;;;;;;-1.10;99.90;;;;;;5087098;28;19942;-70
2022/12/15 10:39:24;;;;;;;;;;;-1.10;99.90;;;;;;5085223;28;20062;-69
2022/12/15 10:42:05;;;;;;;;;;;-1.00;99.90;;;;;;5083357;28;19924;-69
2022/12/15 10:44:36;;;;;;;;;;;-0.90;99.90;;;;;;5088243;28;20130;-69
2022/12/15 10:47:08;;;;;;;;;;;-0.80;99.90;;;;;;5088653;28;20717;-69
2022/12/15 10:49:35;;;;;;;;;;;-0.80;99.90;;;;;;5086604;28;19969;-69
2022/12/15 10:52:03;;;;;;;;;;;-0.70;99.90;;;;;;5087593;28;19932;-69
2022/12/15 10:54:34;;;;;;;;;;;-0.60;99.90;;;;;;5086449;28;20414;-68
2022/12/15 10:57:17;;;;;;;;;;;-0.60;99.90;;;;;;5086809;28;19928;-68
2022/12/15 10:59:44;;;;;;;;;;;-0.60;99.90;;;;;;5086506;28;20271;-68
2022/12/15 11:02:18;;;;;;;;;;;-0.60;99.90;;;;;;5084750;28;19938;-70
2022/12/15 11:04:54;;;;;;;;;;;-0.60;99.90;;;;;;5087944;28;19931;-68
2022/12/15 11:07:22;;;;;;;;;;;-0.60;99.90;;;;;;5087423;28;20023;-70
2022/12/15 11:09:49;;;;;;;;;;;-0.60;99.90;;;;;;5090001;28;20352;-70
2022/12/15 11:15:02;;;;;;;;;;;-0.50;99.90;;;;;;5085451;28;20302;-69
2022/12/15 11:17:33;;;;;;;;;;;-0.40;99.90;;;;;;5086919;28;20304;-69
2022/12/15 11:20:02;;;;;;;;;;;-0.30;99.90;;;;;;5083851;28;19932;-69
2022/12/15 11:22:35;;;;;;;;;;;-0.30;99.90;;;;;;5087432;28;20185;-69
2022/12/15 11:25:05;;;;;;;;;;;-0.20;99.90;;;;;;5087313;28;19928;-68
2022/12/15 11:27:33;;;;;;;;;;;-0.20;99.90;;;;;;5087782;28;19946;-71
2022/12/15 11:30:02;;;;;;;;;;;-0.10;99.90;;;;;;5089002;28;19932;-69
2022/12/15 11:32:32;;;;;;;;;;;0.00;99.90;;;;;;5084981;27;20641;-68
2022/12/15 11:34:59;;;;;;;;;;;-0.10;99.90;;;;;;5084375;28;19923;-69
2022/12/15 11:37:40;;;;;;;;;;;0.10;99.90;;;;;;5082444;28;19932;-68
2022/12/15 11:40:24;;;;;;;;;;;0.10;99.90;;;;;;5082296;27;20022;-67
2022/12/15 11:42:59;;;;;;;;;;;0.10;99.90;;;;;;5082937;28;19971;-69
2022/12/15 11:45:32;;;;;;;;;;;0.20;99.90;;;;;;5088199;28;19943;-69
2022/12/15 11:48:05;;;;;;;;;;;0.20;99.90;;;;;;5086527;28;20001;-68
2022/12/15 11:50:35;;;;;;;;;;;0.20;99.90;;;;;;5087012;28;20320;-70
2022/12/15 11:53:09;;;;;;;;;;;0.20;99.90;;;;;;5087712;28;19954;-70
2022/12/15 11:55:41;;;;;;;;;;;0.30;99.90;;;;;;5091220;27;20393;-76
2022/12/15 11:58:19;;;;;;;;;;;0.30;99.90;;;;;;5090405;27;19928;-70
2022/12/15 12:00:51;;;;;;;;;;;0.40;99.90;;;;;;5090773;28;19930;-69
2022/12/15 12:03:24;;;;;;;;;;;0.40;99.90;;;;;;5088627;28;20010;-72
2022/12/15 12:06:08;;;;;;;;;;;0.50;99.90;;;;;;5090911;28;20027;-71
2022/12/15 12:08:41;;;;;;;;;;;0.60;99.90;;;;;;5093215;28;19928;-71
2022/12/15 12:11:12;;;;;;;;;;;0.60;99.90;;;;;;5088619;28;20233;-71
2022/12/15 12:13:42;;;;;;;;;;;0.70;99.90;;;;;;5090905;28;19932;-69
2022/12/15 12:16:14;;;;;;;;;;;0.70;99.90;;;;;;5090662;28;19955;-70
2022/12/15 12:18:46;;;;;;;;;;;0.70;99.90;;;;;;5094397;28;19955;-68
2022/12/15 12:21:15;;;;;;;;;;;0.70;99.90;;;;;;5089333;28;19932;-67
2022/12/15 12:23:45;;;;;;;;;;;0.70;99.90;;;;;;5089642;28;20019;-69
2022/12/15 12:26:17;;;;;;;;;;;0.70;99.90;;;;;;5090183;28;19978;-69
2022/12/15 12:28:46;;;;;;;;;;;0.70;99.90;;;;;;5089383;28;19975;-68
2022/12/15 12:31:19;;;;;;;;;;;0.70;99.90;;;;;;5091259;28;19928;-70
2022/12/15 12:33:48;;;;;;;;;;;0.90;99.90;;;;;;5090793;28;19931;-70
2022/12/15 12:36:15;;;;;;;;;;;1.30;99.90;;;;;;5089603;27;19939;-69
2022/12/15 12:38:45;;;;;;;;;;;1.80;99.90;;;;;;5090456;28;20038;-69
2022/12/15 12:41:16;;;;;;;;;;;1.60;99.90;;;;;;5088745;28;20011;-70
2022/12/15 12:43:45;;;;;;;;;;;1.30;99.90;;;;;;5090038;28;20006;-71
2022/12/15 12:46:15;;;;;;;;;;;1.10;99.90;;;;;;5089692;28;19934;-70
2022/12/15 12:48:45;;;;;;;;;;;1.10;99.90;;;;;;5092056;28;19928;-71
2022/12/15 12:51:24;;;;;;;;;;;1.10;99.90;;;;;;5091784;28;20374;-72
2022/12/15 12:53:51;;;;;;;;;;;1.10;99.90;;;;;;5083951;28;20884;-70
2022/12/15 12:56:35;;;;;;;;;;;1.10;99.90;;;;;;5087972;28;19980;-71
2022/12/15 12:59:07;;;;;;;;;;;1.20;99.90;;;;;;5088647;28;20043;-72
2022/12/15 13:01:35;;;;;;;;;;;1.20;99.90;;;;;;5087674;28;20408;-71
2022/12/15 13:04:07;;;;;;;;;;;1.30;99.90;;;;;;5087686;28;19928;-72
2022/12/15 13:06:51;;;;;;;;;;;1.30;99.90;;;;;;5086201;28;19939;-70
2022/12/15 13:09:21;;;;;;;;;;;1.20;99.90;;;;;;5074212;27;19928;-70
2022/12/15 13:11:56;;;;;;;;;;;1.20;99.90;;;;;;5085961;28;19938;-69
2022/12/15 13:14:29;;;;;;;;;;;1.20;99.90;;;;;;5087538;28;20019;-72
2022/12/15 13:16:57;;;;;;;;;;;1.10;99.90;;;;;;5082181;28;19931;-75
2022/12/15 13:19:39;;;;;;;;;;;1.00;99.90;;;;;;5087773;28;19928;-75
2022/12/15 13:22:22;;;;;;;;;;;1.00;99.90;;;;;;5093737;27;19984;-72
2022/12/15 13:24:51;;;;;;;;;;;0.90;99.90;;;;;;5099381;28;19928;-73
2022/12/15 13:27:18;;;;;;;;;;;0.80;99.90;;;;;;5086440;28;19924;-73
2022/12/15 13:30:00;;;;;;;;;;;0.80;99.90;;;;;;5086852;28;19928;-74
2022/12/15 13:32:32;;;;;;;;;;;0.80;99.90;;;;;;5084065;28;22142;-70
2022/12/15 13:35:03;;;;;;;;;;;0.90;99.90;;;;;;5085753;28;19928;-72
2022/12/15 13:37:45;;;;;;;;;;;0.90;99.90;;;;;;5086901;28;19951;-74
2022/12/15 13:40:25;;;;;;;;;;;0.90;99.90;;;;;;5094760;28;19990;-73
2022/12/15 13:42:56;;;;;;;;;;;1.10;99.90;;;;;;5082225;28;19989;-70
2022/12/15 13:45:41;;;;;;;;;;;1.10;99.90;;;;;;5084237;28;19951;-72
2022/12/15 13:48:31;;;;;;;;;;;1.10;99.90;;;;;;5085741;28;20022;-69
2022/12/15 13:51:04;;;;;;;;;;;1.10;99.90;;;;;;5068596;28;20014;-71
2022/12/15 13:53:36;;;;;;;;;;;1.00;99.90;;;;;;5088910;28;19938;-71
2022/12/15 13:56:06;;;;;;;;;;;1.00;99.90;;;;;;5087520;28;19927;-71
2022/12/15 13:58:38;;;;;;;;;;;1.00;99.90;;;;;;5088172;28;19936;-72
2022/12/15 14:01:17;;;;;;;;;;;1.00;99.90;;;;;;5083536;28;19928;-71
2022/12/15 14:03:55;;;;;;;;;;;0.90;99.90;;;;;;5087575;28;19957;-70
2022/12/15 14:06:25;;;;;;;;;;;0.90;99.90;;;;;;5082393;28;19940;-71
2022/12/15 14:08:52;;;;;;;;;;;0.90;99.90;;;;;;5086832;28;21100;-71
2022/12/15 14:11:25;;;;;;;;;;;0.90;99.90;;;;;;5084853;28;19943;-71
2022/12/15 14:13:54;;;;;;;;;;;1.00;99.90;;;;;;5086995;28;19927;-71
2022/12/15 14:16:22;;;;;;;;;;;1.00;99.90;;;;;;5087782;28;19923;-69
2022/12/15 14:19:02;;;;;;;;;;;1.00;99.90;;;;;;5084990;28;19977;-70
2022/12/15 14:21:30;;;;;;;;;;;1.10;99.90;;;;;;5086950;28;19967;-70
2022/12/15 14:23:57;;;;;;;;;;;1.10;99.90;;;;;;5084299;28;19947;-70
2022/12/15 14:26:26;;;;;;;;;;;1.10;99.90;;;;;;5086944;28;20089;-71
2022/12/15 14:29:00;;;;;;;;;;;1.10;99.90;;;;;;5085483;28;19939;-70
2022/12/15 14:31:27;;;;;;;;;;;1.10;99.90;;;;;;5086249;28;19938;-72
2022/12/15 14:34:00;;;;;;;;;;;1.00;99.90;;;;;;5085563;28;20013;-72
2022/12/15 14:36:27;;;;;;;;;;;1.00;99.90;;;;;;5082811;28;19931;-70
2022/12/15 14:38:57;;;;;;;;;;;0.90;99.90;;;;;;5084068;28;19932;-72
2022/12/15 14:41:25;;;;;;;;;;;0.80;99.90;;;;;;5084686;28;19932;-70
2022/12/15 14:43:52;;;;;;;;;;;0.80;99.90;;;;;;5087279;28;20334;-69
2022/12/15 14:46:35;;;;;;;;;;;0.80;99.90;;;;;;5087763;28;20035;-71
2022/12/15 14:49:05;;;;;;;;;;;0.70;99.90;;;;;;5085580;28;20236;-72
2022/12/15 14:51:38;;;;;;;;;;;0.70;99.90;;;;;;5083375;28;19928;-72
2022/12/15 14:54:06;;;;;;;;;;;0.60;99.90;;;;;;5089433;28;20348;-70
2022/12/15 14:56:33;;;;;;;;;;;0.50;99.90;;;;;;5084094;28;19930;-70
2022/12/15 14:59:02;;;;;;;;;;;0.50;99.90;;;;;;5087449;28;20052;-71
2022/12/15 15:01:30;;;;;;;;;;;0.40;99.90;;;;;;5085100;28;20323;-71
2022/12/15 15:03:58;;;;;;;;;;;0.40;99.90;;;;;;5086845;28;19928;-72
2022/12/15 15:06:29;;;;;;;;;;;0.30;99.90;;;;;;5085173;28;20446;-72
2022/12/15 15:08:56;;;;;;;;;;;0.20;99.90;;;;;;5085687;28;20505;-72
2022/12/15 15:11:28;;;;;;;;;;;0.20;99.90;;;;;;5081062;28;20068;-71
2022/12/15 15:13:56;;;;;;;;;;;0.20;99.90;;;;;;5084594;28;19927;-70
2022/12/15 15:16:22;;;;;;;;;;;0.20;99.90;;;;;;5084073;28;20001;-71
2022/12/15 15:18:50;;;;;;;;;;;0.10;99.90;;;;;;5084781;28;19932;-71
2022/12/15 15:21:18;;;;;;;;;;;0.10;99.90;;;;;;5089184;28;19947;-70
2022/12/15 15:23:57;;;;;;;;;;;0.00;99.90;;;;;;5090054;28;19939;-71
2022/12/15 15:26:26;;;;;;;;;;;0.00;99.90;;;;;;5089294;28;19959;-71
2022/12/15 15:28:53;;;;;;;;;;;-0.20;99.90;;;;;;5084318;28;19967;-71
2022/12/15 15:31:26;;;;;;;;;;;-0.20;99.90;;;;;;5087842;28;19948;-71
2022/12/15 15:33:55;;;;;;;;;;;-0.30;99.90;;;;;;5087352;28;19934;-72
2022/12/15 15:36:22;;;;;;;;;;;-0.30;99.90;;;;;;5084844;28;19935;-71
2022/12/15 15:38:50;;;;;;;;;;;-0.50;99.90;;;;;;5085722;28;19924;-71
2022/12/15 15:41:18;;;;;;;;;;;-0.50;99.90;;;;;;5088363;28;19932;-73
2022/12/15 15:43:46;;;;;;;;;;;-0.60;99.90;;;;;;5101391;28;19964;-71
2022/12/15 15:46:15;;;;;;;;;;;-0.70;99.90;;;;;;5084163;28;20018;-70
2022/12/15 15:48:44;;;;;;;;;;;-0.70;99.90;;;;;;5084113;27;19935;-71
2022/12/15 15:51:11;;;;;;;;;;;-0.80;99.90;;;;;;5086957;28;19924;-72
2022/12/15 15:53:38;;;;;;;;;;;-0.80;99.90;;;;;;5087954;28;19938;-71
2022/12/15 15:56:06;;;;;;;;;;;-0.90;99.90;;;;;;5089058;28;20012;-72
2022/12/15 15:58:33;;;;;;;;;;;-1.00;99.90;;;;;;5085401;28;20392;-71
2022/12/15 16:01:01;;;;;;;;;;;-1.00;99.90;;;;;;5086475;27;19927;-72
2022/12/15 16:03:28;;;;;;;;;;;-1.00;99.90;;;;;;5086669;27;19977;-72
2022/12/15 16:05:55;;;;;;;;;;;-1.10;99.90;;;;;;5088115;28;19950;-71
2022/12/15 16:08:26;;;;;;;;;;;-1.10;99.90;;;;;;5087655;28;19989;-70
2022/12/15 16:10:53;;;;;;;;;;;-1.20;99.90;;;;;;5088112;28;19954;-70
2022/12/15 16:13:21;;;;;;;;;;;-1.30;99.90;;;;;;5087570;28;20054;-71
2022/12/15 16:15:48;;;;;;;;;;;-1.40;99.90;;;;;;5087112;28;20023;-71
2022/12/15 16:18:16;;;;;;;;;;;-1.40;99.90;;;;;;5084866;28;21272;-70
2022/12/15 16:20:43;;;;;;;;;;;-1.40;99.90;;;;;;5085481;28;19971;-70
2022/12/15 16:23:12;;;;;;;;;;;-1.50;99.90;;;;;;5086993;28;19928;-71
2022/12/15 16:25:40;;;;;;;;;;;-1.60;99.90;;;;;;5090060;28;19932;-71
2022/12/15 16:28:11;;;;;;;;;;;-1.60;99.90;;;;;;5087643;28;19958;-70
2022/12/15 16:30:38;;;;;;;;;;;-1.60;99.90;;;;;;5085477;28;19982;-70
2022/12/15 16:33:05;;;;;;;;;;;-1.50;99.90;;;;;;5086664;28;19985;-71
2022/12/15 16:35:33;;;;;;;;;;;-1.60;99.90;;;;;;5088788;28;20739;-71
2022/12/15 16:38:00;;;;;;;;;;;-1.60;99.90;;;;;;5086563;28;20033;-73
2022/12/15 16:40:27;;;;;;;;;;;-1.60;99.90;;;;;;5087120;28;19932;-71
2022/12/15 16:42:56;;;;;;;;;;;-1.60;99.90;;;;;;5087410;28;19976;-71
2022/12/15 16:45:25;;;;;;;;;;;-1.60;99.90;;;;;;5088235;28;20015;-71
2022/12/15 16:47:52;;;;;;;;;;;-1.60;99.90;;;;;;5084916;28;19997;-71
2022/12/15 16:50:26;;;;;;;;;;;-1.60;99.90;;;;;;5088005;28;20056;-71
2022/12/15 16:52:57;;;;;;;;;;;-1.70;99.90;;;;;;5088880;28;19977;-71
2022/12/15 16:55:25;;;;;;;;;;;-1.80;99.90;;;;;;5088487;28;19935;-72
2022/12/15 16:57:54;;;;;;;;;;;-1.80;99.90;;;;;;5085183;28;19967;-70